Terminal Aerodrome Forecast
Issued by NWS Bismarck, ND

Home | Current Version | Previous Version | Text Only | Print | Product List | Glossary Off
Versions: 1 2 3 4 5 6 7 8 9 10 11 12 13 14 15 16 17 18 19 20 21 22 23 24 25

796
FTUS43 KBIS 231130
TAFBIS
TAF
KBIS 231130Z 2312/2412 31004KT P6SM SCT040 BKN120
      TEMPO 2314/2317 02008KT 4SM BR BKN015 OVC025
     FM231700 04008KT 5SM BR BKN025
     FM240000 02009KT P6SM BKN010 OVC020=

USA.gov is the U.S. government's official web portal to all federal, state and local government web resources and services.